Time;durP1;ratioP1;P1;durP2;ratioP2;P2;SDS_P1;SDS_P2;PMS_P1;PMS_P2;Temp;Humidity;BMP_temperature;BMP_pressure;BME280_temperature;BME280_humidity;BME280_pressure;Samples;Min_cycle;Max_cycle;Signal;HPM_P1;HPM_P2
2023/08/10 00:01:20;;;;;;;3.80;1.90;;;;;;;21.98;61.12;100464.47;4898760;29;20059;-70
2023/08/10 00:03:49;;;;;;;3.10;1.60;;;;;;;21.94;61.13;100454.94;4898720;29;20462;-72
2023/08/10 00:06:17;;;;;;;2.67;1.60;;;;;;;21.95;61.04;100462.09;4898247;29;20063;-71
2023/08/10 00:08:47;;;;;;;3.88;1.80;;;;;;;21.96;60.95;100459.19;4897058;29;20052;-70
2023/08/10 00:11:16;;;;;;;3.03;1.65;;;;;;;21.94;61.15;100463.94;4898349;29;20490;-70
2023/08/10 00:13:47;;;;;;;2.67;1.60;;;;;;;21.95;61.23;100462.94;4898492;29;20076;-71
2023/08/10 00:16:17;;;;;;;3.50;1.70;;;;;;;21.94;60.96;100461.22;4898129;29;20053;-69
2023/08/10 00:18:45;;;;;;;3.67;1.70;;;;;;;21.93;60.90;100467.69;4897733;29;20431;-70
2023/08/10 00:21:15;;;;;;;2.90;1.50;;;;;;;21.93;61.08;100464.09;4897755;29;20147;-70
2023/08/10 00:23:46;;;;;;;2.85;1.58;;;;;;;21.91;60.84;100455.28;4897422;29;20348;-70
2023/08/10 00:26:16;;;;;;;2.70;1.55;;;;;;;21.92;61.13;100462.41;4897306;29;20144;-71
2023/08/10 00:28:45;;;;;;;2.25;1.45;;;;;;;21.89;61.13;100469.00;4897943;29;20059;-71
2023/08/10 00:31:13;;;;;;;2.97;1.48;;;;;;;21.90;61.11;100458.97;4896843;29;20453;-71
2023/08/10 00:33:42;;;;;;;2.55;1.45;;;;;;;21.80;61.12;100450.09;4897259;29;20052;-70
2023/08/10 00:36:11;;;;;;;2.85;1.58;;;;;;;21.88;61.28;100459.16;4883646;29;20049;-71
2023/08/10 00:38:41;;;;;;;4.00;1.90;;;;;;;21.86;61.24;100457.59;4878632;29;20127;-71
2023/08/10 00:41:09;;;;;;;3.55;1.80;;;;;;;21.88;61.12;100461.00;4878685;29;20072;-71
2023/08/10 00:43:40;;;;;;;3.00;1.70;;;;;;;21.86;61.21;100458.47;4878154;29;20141;-70
2023/08/10 00:46:13;;;;;;;2.95;1.48;;;;;;;21.85;61.62;100456.75;4878744;29;20104;-70
2023/08/10 00:48:42;;;;;;;2.65;1.77;;;;;;;21.87;61.27;100453.88;4879174;29;20067;-70
2023/08/10 00:51:14;;;;;;;2.65;1.70;;;;;;;21.86;61.12;100453.03;4878407;29;20049;-71
2023/08/10 00:53:43;;;;;;;3.45;1.83;;;;;;;21.87;61.15;100453.88;4878950;29;20164;-70
2023/08/10 00:56:15;;;;;;;3.42;1.77;;;;;;;21.85;61.30;100458.63;4879496;29;20080;-70
2023/08/10 00:58:45;;;;;;;2.17;1.40;;;;;;;21.85;61.22;100458.63;4877102;29;20139;-70
2023/08/10 01:01:13;;;;;;;2.65;1.55;;;;;;;21.83;61.14;100449.78;4878771;29;20057;-70
2023/08/10 01:03:42;;;;;;;2.70;1.55;;;;;;;21.83;61.45;100452.50;4878135;29;20061;-71
2023/08/10 01:06:17;;;;;;;3.53;1.77;;;;;;;21.82;61.48;100454.38;4878833;29;20060;-71
2023/08/10 01:08:55;;;;;;;2.85;1.67;;;;;;;21.83;61.28;100458.78;4878805;29;20057;-70
2023/08/10 01:11:31;;;;;;;3.58;1.55;;;;;;;21.83;61.24;100455.22;4878568;29;20057;-70
2023/08/10 01:14:11;;;;;;;2.53;1.50;;;;;;;21.81;61.40;100465.38;4878292;29;20075;-71
2023/08/10 01:16:43;;;;;;;2.40;1.40;;;;;;;21.80;61.59;100458.25;4878645;29;20056;-70
2023/08/10 01:19:24;;;;;;;2.92;1.60;;;;;;;21.79;61.41;100459.25;4876753;29;20468;-70
2023/08/10 01:22:02;;;;;;;3.53;1.85;;;;;;;21.80;61.64;100463.66;4878190;29;20048;-70
2023/08/10 01:24:36;;;;;;;3.67;1.85;;;;;;;21.79;61.54;100467.41;4877887;29;20057;-70
2023/08/10 01:27:06;;;;;;;3.08;1.63;;;;;;;21.78;61.57;100460.25;4877993;29;20556;-70
2023/08/10 01:29:35;;;;;;;4.15;1.88;;;;;;;21.78;61.63;100461.13;4878128;29;20460;-70
2023/08/10 01:32:04;;;;;;;1.92;1.35;;;;;;;21.77;61.61;100464.00;4878308;29;20059;-69
2023/08/10 01:34:32;;;;;;;3.22;1.65;;;;;;;21.78;61.37;100468.41;4878107;29;20048;-69
2023/08/10 01:37:01;;;;;;;3.17;1.70;;;;;;;21.76;61.69;100468.56;4907829;29;20523;-70
2023/08/10 01:39:29;;;;;;;2.67;1.60;;;;;;;21.76;61.66;100462.28;4878240;29;20060;-71
2023/08/10 01:41:57;;;;;;;3.10;1.60;;;;;;;21.76;61.40;100468.56;4877343;29;20484;-72
2023/08/10 01:44:27;;;;;;;3.25;1.48;;;;;;;21.73;61.17;100463.47;4876715;29;20056;-71
2023/08/10 01:47:01;;;;;;;2.72;1.60;;;;;;;21.75;61.42;100466.03;4878100;29;20125;-71
2023/08/10 01:49:34;;;;;;;3.20;1.80;;;;;;;21.74;61.47;100461.63;4877598;29;20053;-71
2023/08/10 01:52:08;;;;;;;2.72;1.60;;;;;;;21.73;61.46;100460.75;4878021;29;20113;-71
2023/08/10 01:54:38;;;;;;;2.63;1.63;;;;;;;21.71;61.49;100466.34;4878040;29;20065;-72
2023/08/10 01:57:06;;;;;;;2.58;1.70;;;;;;;21.71;61.59;100462.75;4877714;29;20052;-70
2023/08/10 01:59:36;;;;;;;2.92;1.80;;;;;;;21.70;61.60;100461.06;4877938;29;20108;-70
2023/08/10 02:02:04;;;;;;;3.30;1.70;;;;;;;21.69;61.69;100465.63;4877141;29;20076;-70
2023/08/10 02:04:33;;;;;;;3.63;1.60;;;;;;;21.69;61.75;100462.91;4877576;29;20140;-70
2023/08/10 02:07:04;;;;;;;2.42;1.50;;;;;;;21.69;61.51;100457.50;4877663;29;20131;-70
2023/08/10 02:09:33;;;;;;;2.80;1.70;;;;;;;21.67;61.76;100458.66;4877745;29;20053;-70
2023/08/10 02:12:02;;;;;;;2.58;1.50;;;;;;;21.69;61.46;100460.19;4877580;29;20049;-71
2023/08/10 02:14:34;;;;;;;2.90;1.40;;;;;;;21.68;61.71;100455.78;4877230;29;20084;-71
2023/08/10 02:17:06;;;;;;;3.58;1.60;;;;;;;21.67;61.53;100459.53;4877629;29;20056;-71
2023/08/10 02:19:35;;;;;;;2.40;1.50;;;;;;;21.66;61.54;100463.25;4877644;29;20463;-70
2023/08/10 02:22:03;;;;;;;2.33;1.50;;;;;;;21.67;61.76;100459.53;4877568;29;20055;-70
2023/08/10 02:24:32;;;;;;;2.88;1.70;;;;;;;21.66;61.62;100457.81;4877567;29;20053;-70
2023/08/10 02:27:01;;;;;;;3.42;1.58;;;;;;;21.65;61.71;100455.28;4877313;29;20112;-70
2023/08/10 02:29:31;;;;;;;2.25;1.50;;;;;;;21.64;61.83;100451.69;4877314;29;20460;-70
2023/08/10 02:32:00;;;;;;;3.22;1.50;;;;;;;21.64;61.71;100454.41;4877354;29;20176;-70
2023/08/10 02:34:30;;;;;;;3.45;1.60;;;;;;;21.63;61.94;100454.59;4877400;29;20049;-70
2023/08/10 02:36:59;;;;;;;3.13;1.63;;;;;;;21.63;61.77;100462.72;4877082;29;20055;-70
2023/08/10 02:39:27;;;;;;;3.28;1.52;;;;;;;21.62;61.89;100452.88;4877206;29;20056;-70
2023/08/10 02:41:56;;;;;;;2.63;1.50;;;;;;;21.60;62.00;100447.59;4875891;29;20064;-70
2023/08/10 02:44:24;;;;;;;3.13;1.75;;;;;;;21.61;62.10;100445.72;4877213;29;20128;-70
2023/08/10 02:46:53;;;;;;;3.92;1.80;;;;;;;21.58;61.96;100444.19;4876729;29;20112;-70
2023/08/10 02:49:21;;;;;;;3.47;1.70;;;;;;;21.60;62.03;100447.59;4876701;29;20103;-70
2023/08/10 02:51:51;;;;;;;3.90;1.60;;;;;;;21.59;61.87;100455.88;4876468;29;20053;-70
2023/08/10 02:54:19;;;;;;;5.57;1.95;;;;;;;21.58;61.82;100460.47;4878687;29;20061;-70
2023/08/10 02:56:47;;;;;;;3.88;1.80;;;;;;;21.59;62.09;100464.03;4880806;29;20492;-70
2023/08/10 02:59:15;;;;;;;3.33;1.60;;;;;;;21.59;62.09;100455.88;4880788;29;20131;-70
2023/08/10 03:01:45;;;;;;;3.38;1.70;;;;;;;21.58;62.11;100457.75;4880569;29;20123;-70
2023/08/10 03:04:13;;;;;;;2.80;1.85;;;;;;;21.58;61.89;100465.03;4880611;29;20061;-70
2023/08/10 03:06:42;;;;;;;2.95;1.73;;;;;;;21.56;62.15;100465.22;4880410;29;20060;-70
2023/08/10 03:09:11;;;;;;;3.03;1.83;;;;;;;21.56;61.96;100461.66;4880265;29;20060;-70
2023/08/10 03:11:41;;;;;;;3.47;1.83;;;;;;;21.55;62.24;100455.38;4879839;29;20152;-70
2023/08/10 03:14:09;;;;;;;4.40;2.00;;;;;;;21.54;62.04;100459.09;4880338;29;20136;-70
2023/08/10 03:16:40;;;;;;;2.65;2.00;;;;;;;21.53;62.24;100457.41;4880427;29;20100;-70
2023/08/10 03:19:09;;;;;;;3.42;1.60;;;;;;;21.55;62.07;100457.22;4880106;29;20056;-70
2023/08/10 03:21:37;;;;;;;3.30;2.00;;;;;;;21.53;62.14;100457.41;4880328;29;20053;-70
2023/08/10 03:24:10;;;;;;;3.47;2.10;;;;;;;21.52;61.98;100457.53;4880325;29;20056;-70
2023/08/10 03:26:40;;;;;;;3.42;2.05;;;;;;;21.51;62.32;100463.97;4880266;29;20053;-70
2023/08/10 03:29:08;;;;;;;4.00;2.20;;;;;;;21.50;62.36;100462.25;4880144;29;20472;-70
2023/08/10 03:31:36;;;;;;;3.47;2.03;;;;;;;21.47;62.16;100458.00;4879722;29;20053;-69
2023/08/10 03:34:05;;;;;;;3.63;2.00;;;;;;;21.47;62.43;100458.00;4879822;29;20064;-70
2023/08/10 03:36:35;;;;;;;3.65;1.90;;;;;;;21.45;62.53;100462.75;4880562;29;20113;-70
2023/08/10 03:39:04;;;;;;;3.08;2.00;;;;;;;21.45;62.39;100460.03;4879838;29;20049;-68
2023/08/10 03:41:32;;;;;;;2.90;1.85;;;;;;;21.45;62.50;100465.47;4880004;29;20068;-70
2023/08/10 03:44:02;;;;;;;3.40;2.00;;;;;;;21.45;62.50;100470.88;4879869;29;20400;-71
2023/08/10 03:46:31;;;;;;;3.03;2.00;;;;;;;21.44;62.27;100474.63;4879484;29;20053;-71
2023/08/10 03:48:59;;;;;;;3.35;2.10;;;;;;;21.43;62.53;100479.19;4879760;29;20056;-71
2023/08/10 03:51:27;;;;;;;4.03;2.30;;;;;;;21.43;62.27;100473.75;4879250;29;20113;-71
2023/08/10 03:53:55;;;;;;;3.13;2.20;;;;;;;21.42;62.32;100482.03;4879399;29;20088;-70
2023/08/10 03:56:24;;;;;;;3.58;1.90;;;;;;;21.42;62.42;100488.34;4879065;29;20499;-70
2023/08/10 03:58:52;;;;;;;3.55;1.95;;;;;;;21.41;62.69;100491.19;4878906;29;20451;-70
2023/08/10 04:01:22;;;;;;;3.15;2.13;;;;;;;21.40;62.51;100497.63;4879243;29;20061;-70
2023/08/10 04:03:50;;;;;;;3.42;2.15;;;;;;;21.40;62.56;100490.34;4879455;29;20079;-70
2023/08/10 04:06:19;;;;;;;4.03;2.13;;;;;;;21.39;62.64;100498.63;4878786;29;20517;-70
2023/08/10 04:08:48;;;;;;;4.15;2.30;;;;;;;21.39;62.41;100501.34;4879572;29;20053;-70
2023/08/10 04:11:16;;;;;;;3.20;2.05;;;;;;;21.39;62.39;100504.06;4879602;29;20048;-71
2023/08/10 04:13:45;;;;;;;3.28;2.00;;;;;;;21.36;62.79;100498.97;4879170;29;20057;-70
2023/08/10 04:16:13;;;;;;;3.63;2.10;;;;;;;21.35;62.64;100498.13;4879316;29;20053;-71
2023/08/10 04:18:44;;;;;;;3.08;1.90;;;;;;;21.36;62.51;100502.53;4879269;29;20475;-71
2023/08/10 04:21:13;;;;;;;3.25;2.03;;;;;;;21.37;62.58;100503.38;4879015;29;20391;-71
2023/08/10 04:23:41;;;;;;;3.00;1.90;;;;;;;21.36;62.47;100509.81;4878592;29;20128;-71
2023/08/10 04:26:10;;;;;;;4.70;1.95;;;;;;;21.35;62.57;100508.13;4878793;29;20084;-70
2023/08/10 04:28:38;;;;;;;4.10;2.40;;;;;;;21.35;62.45;100499.97;4879161;29;20129;-70
2023/08/10 04:31:07;;;;;;;3.20;2.00;;;;;;;21.35;62.69;100511.69;4879190;29;20085;-71
2023/08/10 04:33:36;;;;;;;3.67;2.25;;;;;;;21.35;62.49;100516.25;4878680;29;20510;-71
2023/08/10 04:36:07;;;;;;;3.40;2.15;;;;;;;21.35;62.70;100510.81;4878947;29;20505;-71
2023/08/10 04:38:35;;;;;;;3.33;2.00;;;;;;;21.34;62.44;100511.84;4878855;29;20049;-70
2023/08/10 04:41:04;;;;;;;2.90;2.10;;;;;;;21.35;62.53;100508.13;4878735;29;20049;-70
2023/08/10 04:43:34;;;;;;;3.88;2.40;;;;;;;21.34;62.51;100514.56;4878760;29;20053;-70
2023/08/10 04:46:03;;;;;;;3.22;2.08;;;;;;;21.34;62.67;100511.84;4879203;29;20100;-71
2023/08/10 04:48:31;;;;;;;3.28;2.03;;;;;;;21.34;62.39;100515.41;4878509;29;20115;-70
2023/08/10 04:51:02;;;;;;;3.47;2.25;;;;;;;21.34;62.54;100518.13;4876709;29;20057;-70
2023/08/10 04:53:31;;;;;;;2.97;1.90;;;;;;;21.33;62.39;100510.97;4877907;29;20052;-69
2023/08/10 04:56:00;;;;;;;3.15;1.80;;;;;;;21.27;62.37;100499.91;4878126;29;20053;-69
2023/08/10 04:58:28;;;;;;;3.88;2.33;;;;;;;21.35;62.72;100516.25;4878220;29;20056;-70
2023/08/10 05:00:57;;;;;;;3.03;2.05;;;;;;;21.33;62.40;100516.41;4878671;29;20049;-70
2023/08/10 05:03:28;;;;;;;3.55;2.10;;;;;;;21.34;62.48;100517.25;4878345;29;20161;-70
2023/08/10 05:05:56;;;;;;;3.22;1.88;;;;;;;21.34;62.73;100522.69;4878240;29;20057;-70
2023/08/10 05:08:25;;;;;;;3.42;2.28;;;;;;;21.31;62.48;100517.56;4878125;29;20057;-69
2023/08/10 05:10:58;;;;;;;2.90;1.77;;;;;;;21.34;62.51;100522.69;4878534;29;20080;-69
2023/08/10 05:13:27;;;;;;;3.08;2.00;;;;;;;21.33;62.77;100529.97;4877859;29;20083;-70
2023/08/10 05:15:55;;;;;;;3.35;2.15;;;;;;;21.33;62.83;100538.13;4878048;29;20060;-69
2023/08/10 05:18:24;;;;;;;2.92;1.92;;;;;;;21.33;62.67;100532.69;4877058;29;20468;-70
2023/08/10 05:20:52;;;;;;;3.20;2.10;;;;;;;21.33;62.89;100531.84;4877399;29;20092;-69
2023/08/10 05:23:21;;;;;;;3.08;1.90;;;;;;;21.32;62.93;100530.09;4877825;29;20057;-69
2023/08/10 05:25:52;;;;;;;3.40;2.35;;;;;;;21.32;62.70;100535.53;4878159;29;20479;-69
2023/08/10 05:28:25;;;;;;;3.20;2.10;;;;;;;21.32;62.84;100535.53;4877837;29;20053;-70
2023/08/10 05:30:54;;;;;;;3.33;2.30;;;;;;;21.33;62.71;100537.25;4877726;29;20139;-70
2023/08/10 05:33:22;;;;;;;2.92;1.90;;;;;;;21.32;62.67;100540.97;4877545;29;20119;-71
2023/08/10 05:35:51;;;;;;;3.35;2.13;;;;;;;21.30;62.86;100537.56;4877622;29;20120;-70
2023/08/10 05:38:19;;;;;;;2.55;1.85;;;;;;;21.30;62.80;100537.56;4877579;29;20088;-70
2023/08/10 05:40:47;;;;;;;3.38;1.80;;;;;;;21.32;62.75;100546.38;4877726;29;20128;-71
2023/08/10 05:43:15;;;;;;;2.92;1.80;;;;;;;21.31;62.90;100550.97;4877701;29;20068;-71
2023/08/10 05:45:47;;;;;;;3.22;2.03;;;;;;;21.31;62.79;100539.25;4877310;29;20048;-70
2023/08/10 05:48:15;;;;;;;2.83;1.80;;;;;;;21.31;62.92;100541.97;4877451;29;20522;-69
2023/08/10 05:50:43;;;;;;;3.58;1.98;;;;;;;21.33;62.98;100542.69;4877536;29;20109;-71
2023/08/10 05:53:12;;;;;;;3.00;2.03;;;;;;;21.33;62.79;100548.97;4876388;29;20053;-73
2023/08/10 05:55:41;;;;;;;2.75;1.77;;;;;;;21.33;62.88;100551.69;4857916;29;20050;-70
2023/08/10 05:58:09;;;;;;;3.70;1.80;;;;;;;21.32;62.97;100554.53;4857947;29;20060;-70
2023/08/10 06:00:39;;;;;;;3.10;2.00;;;;;;;21.33;63.06;100559.81;4857610;29;20054;-70
2023/08/10 06:03:09;;;;;;;3.70;1.80;;;;;;;21.33;63.02;100553.53;4858892;29;20472;-69
2023/08/10 06:05:38;;;;;;;2.83;2.00;;;;;;;21.34;62.98;100563.38;4858066;29;20479;-70
2023/08/10 06:08:07;;;;;;;3.90;2.20;;;;;;;21.34;62.90;100552.53;4858367;29;20476;-69
2023/08/10 06:10:39;;;;;;;2.83;2.05;;;;;;;21.35;62.85;100562.38;4858849;29;20050;-70
2023/08/10 06:13:07;;;;;;;3.00;1.67;;;;;;;21.35;62.81;100552.38;4858982;29;20139;-69
2023/08/10 06:15:36;;;;;;;2.85;1.90;;;;;;;21.35;63.09;100551.53;4858834;29;20064;-72
2023/08/10 06:18:05;;;;;;;4.47;1.98;;;;;;;21.34;62.90;100549.81;4860899;29;20060;-70
2023/08/10 06:20:35;;;;;;;3.28;1.90;;;;;;;21.35;62.90;100563.22;4873027;29;20293;-70
2023/08/10 06:23:04;;;;;;;3.90;2.00;;;;;;;21.36;62.84;100564.09;4880515;29;20071;-71
2023/08/10 06:25:33;;;;;;;3.80;2.00;;;;;;;21.35;63.34;100551.53;4877329;29;20480;-72
2023/08/10 06:28:01;;;;;;;3.15;1.92;;;;;;;21.36;63.05;100559.50;4876840;29;20045;-70
2023/08/10 06:30:30;;;;;;;4.53;1.80;;;;;;;21.36;63.12;100551.38;4876996;29;20129;-71
2023/08/10 06:32:59;;;;;;;2.45;1.70;;;;;;;21.37;63.05;100549.50;4877081;29;20099;-70
2023/08/10 06:35:35;;;;;;;3.05;1.80;;;;;;;21.36;63.26;100554.06;4877056;29;20491;-70
2023/08/10 06:38:05;;;;;;;3.20;2.13;;;;;;;21.37;63.16;100554.94;4877264;29;20075;-71
2023/08/10 06:40:33;;;;;;;3.17;1.90;;;;;;;21.37;63.17;100557.66;4877256;29;20088;-70
2023/08/10 06:43:01;;;;;;;3.30;2.00;;;;;;;21.39;63.14;100569.19;4877497;29;20422;-71
2023/08/10 06:45:30;;;;;;;3.15;1.70;;;;;;;21.38;63.29;100568.34;4876764;29;20056;-71
2023/08/10 06:47:58;;;;;;;3.58;2.00;;;;;;;21.38;63.48;100562.91;4876494;29;20059;-72
2023/08/10 06:50:26;;;;;;;2.20;1.60;;;;;;;21.39;63.21;100569.19;4876650;29;20515;-75
2023/08/10 06:52:58;;;;;;;3.03;1.88;;;;;;;21.36;63.47;100564.94;4876618;29;20064;-77
2023/08/10 06:55:30;;;;;;;3.47;1.83;;;;;;;21.37;63.18;100573.91;4876757;29;20109;-74
2023/08/10 06:58:02;;;;;;;3.23;1.90;;;;;;;21.40;63.45;100576.31;4876524;29;20045;-71
2023/08/10 07:00:31;;;;;;;3.67;1.92;;;;;;;21.41;63.40;100583.44;4877577;29;20045;-74
2023/08/10 07:03:01;;;;;;;2.58;1.77;;;;;;;21.41;63.67;100578.03;4876212;29;20048;-74
2023/08/10 07:05:30;;;;;;;2.80;2.00;;;;;;;21.43;63.30;100592.31;4875959;29;20109;-71
2023/08/10 07:07:58;;;;;;;4.18;1.90;;;;;;;21.44;63.55;100591.31;4876448;29;20060;-73
2023/08/10 07:10:28;;;;;;;3.00;1.92;;;;;;;21.43;63.36;100592.31;4876679;29;20049;-72
2023/08/10 07:12:56;;;;;;;3.55;1.80;;;;;;;21.43;63.73;100585.03;4876398;29;20136;-74
2023/08/10 07:15:24;;;;;;;2.58;1.63;;;;;;;21.42;63.64;100585.16;4876371;29;20427;-73
2023/08/10 07:17:52;;;;;;;3.92;2.15;;;;;;;21.46;63.77;100591.16;4876216;29;20081;-73
2023/08/10 07:20:22;;;;;;;3.97;1.77;;;;;;;21.46;63.72;100594.72;4876043;29;20051;-73
2023/08/10 07:22:50;;;;;;;3.00;1.90;;;;;;;21.44;63.57;100594.00;4876689;29;20057;-75
2023/08/10 07:25:20;;;;;;;2.40;1.58;;;;;;;21.47;63.68;100592.84;4876211;29;20081;-73
2023/08/10 07:27:50;;;;;;;3.47;1.83;;;;;;;21.47;63.77;100593.69;4876316;29;20577;-73
2023/08/10 07:30:18;;;;;;;3.42;1.80;;;;;;;21.48;63.61;100600.81;4875688;29;20077;-72
2023/08/10 07:32:46;;;;;;;2.75;1.70;;;;;;;21.48;63.70;100610.84;4876042;29;20053;-72
2023/08/10 07:35:15;;;;;;;3.15;1.77;;;;;;;21.49;63.62;100605.25;4875731;29;20503;-72
2023/08/10 07:37:43;;;;;;;2.35;1.40;;;;;;;21.49;63.77;100602.53;4875918;29;20092;-74
2023/08/10 07:40:12;;;;;;;3.55;1.80;;;;;;;21.49;63.71;100597.09;4876712;29;20048;-72
2023/08/10 07:42:40;;;;;;;2.65;1.60;;;;;;;21.49;63.76;100599.81;4877906;29;20135;-73
2023/08/10 07:45:10;;;;;;;3.40;1.67;;;;;;;21.50;63.70;100606.09;4877816;29;20452;-73
2023/08/10 07:47:39;;;;;;;2.80;1.60;;;;;;;21.51;63.82;100597.78;4877835;29;20056;-74
2023/08/10 07:50:08;;;;;;;3.20;1.80;;;;;;;21.51;63.55;100600.50;4877617;29;20060;-73
2023/08/10 07:52:36;;;;;;;3.05;1.83;;;;;;;21.51;63.75;100591.50;4877394;29;20069;-72
2023/08/10 07:55:06;;;;;;;3.33;1.70;;;;;;;21.54;63.66;100597.50;4877769;29;20204;-73
2023/08/10 07:57:34;;;;;;;3.08;1.75;;;;;;;21.53;63.51;100601.22;4878431;29;20068;-72
2023/08/10 08:00:06;;;;;;;2.90;1.70;;;;;;;21.54;63.63;100592.06;4879164;29;20135;-72
2023/08/10 08:02:35;;;;;;;3.58;1.92;;;;;;;21.55;63.70;100590.22;4878736;29;20113;-72
2023/08/10 08:05:06;;;;;;;2.72;1.80;;;;;;;21.57;63.76;100599.06;4878758;29;20049;-73
2023/08/10 08:07:34;;;;;;;2.83;1.70;;;;;;;21.56;64.05;100595.50;4878752;29;20116;-72
2023/08/10 08:10:03;;;;;;;2.85;1.58;;;;;;;21.58;63.86;100596.19;4878654;29;20570;-74
2023/08/10 08:12:32;;;;;;;3.05;1.70;;;;;;;21.59;63.75;100597.03;4878787;29;20190;-73
2023/08/10 08:15:05;;;;;;;2.50;1.67;;;;;;;21.60;63.62;100599.59;4878966;29;20425;-73
2023/08/10 08:18:14;;;;;;;2.97;1.63;;;;;;;21.61;63.81;100595.84;4878852;29;20456;-72
2023/08/10 08:20:42;;;;;;;3.58;1.75;;;;;;;21.62;63.78;100596.75;4878675;29;20049;-72
2023/08/10 08:23:11;;;;;;;2.85;1.63;;;;;;;21.63;63.81;100609.31;4879010;29;20063;-73
2023/08/10 08:25:39;;;;;;;2.83;1.60;;;;;;;21.63;63.87;100601.16;4878865;29;20067;-72
2023/08/10 08:28:09;;;;;;;2.55;1.55;;;;;;;21.64;63.63;100600.16;4878179;29;20117;-73
2023/08/10 08:30:37;;;;;;;3.00;1.60;;;;;;;21.63;63.68;100604.72;4878226;29;20088;-73
2023/08/10 08:33:08;;;;;;;2.50;1.55;;;;;;;21.65;63.81;100613.56;4878264;29;20049;-73
2023/08/10 08:35:36;;;;;;;2.47;1.40;;;;;;;21.65;63.64;100608.13;4878632;29;20045;-73
2023/08/10 08:38:05;;;;;;;2.78;1.65;;;;;;;21.64;63.89;100606.44;4878536;29;20053;-71
2023/08/10 08:40:33;;;;;;;2.47;1.77;;;;;;;21.66;63.63;100611.69;4878277;29;20085;-73
2023/08/10 08:43:05;;;;;;;3.40;1.83;;;;;;;21.66;63.79;100617.97;4878277;29;20242;-74
2023/08/10 08:45:34;;;;;;;3.13;1.58;;;;;;;21.66;63.96;100614.41;4878230;29;20495;-73
2023/08/10 08:48:05;;;;;;;1.92;1.40;;;;;;;21.69;63.78;100622.22;4878199;29;20061;-73
2023/08/10 08:50:36;;;;;;;2.58;1.50;;;;;;;21.69;63.80;100625.81;4878130;29;20057;-73
2023/08/10 08:53:06;;;;;;;2.83;1.70;;;;;;;21.70;63.78;100622.06;4877637;29;20061;-73
2023/08/10 08:55:38;;;;;;;2.55;1.70;;;;;;;21.70;63.75;100619.38;4878175;29;20061;-73
2023/08/10 08:58:06;;;;;;;2.60;1.48;;;;;;;21.70;63.68;100622.06;4877806;29;20093;-73
2023/08/10 09:00:35;;;;;;;2.53;1.48;;;;;;;21.71;63.54;100612.94;4878054;29;20633;-73
2023/08/10 09:03:03;;;;;;;3.53;1.50;;;;;;;21.71;63.62;100612.94;4878093;29;20088;-73
2023/08/10 09:05:32;;;;;;;2.65;1.52;;;;;;;21.73;63.67;100606.50;4878036;29;20084;-74
2023/08/10 09:08:02;;;;;;;3.10;1.70;;;;;;;21.74;63.68;100613.63;4878022;29;20492;-73
2023/08/10 09:10:31;;;;;;;2.20;1.40;;;;;;;21.76;63.73;100608.91;4877733;29;20136;-72
2023/08/10 09:13:10;;;;;;;2.83;1.58;;;;;;;21.76;63.52;100612.47;4878151;29;20389;-73
2023/08/10 09:15:38;;;;;;;1.83;1.27;;;;;;;21.76;63.51;100614.34;4878283;29;20049;-73
2023/08/10 09:18:07;;;;;;;1.75;1.30;;;;;;;21.76;63.49;100615.19;4877728;29;20407;-73
2023/08/10 09:20:35;;;;;;;2.75;1.40;;;;;;;21.77;63.58;100610.59;4877638;29;20053;-74
2023/08/10 09:23:05;;;;;;;2.75;1.35;;;;;;;21.78;63.54;100612.31;4877527;29;20117;-73
2023/08/10 09:25:38;;;;;;;2.03;1.40;;;;;;;21.79;63.31;100608.59;4877348;29;20399;-73
2023/08/10 09:28:13;;;;;;;2.15;1.40;;;;;;;21.78;63.42;100615.88;4876236;29;20104;-73
2023/08/10 09:30:42;;;;;;;5.22;1.63;;;;;;;21.79;63.55;100620.28;4877575;29;20061;-73
2023/08/10 09:33:10;;;;;;;2.28;1.50;;;;;;;21.79;63.39;100608.59;4878216;29;20136;-74
2023/08/10 09:35:38;;;;;;;2.55;1.50;;;;;;;21.80;63.34;100610.28;4877753;29;20057;-74
2023/08/10 09:38:08;;;;;;;2.67;1.40;;;;;;;21.81;63.32;100612.00;4877516;29;20448;-74
2023/08/10 09:40:36;;;;;;;2.35;1.35;;;;;;;21.80;63.35;100613.00;4877433;29;20052;-73
2023/08/10 09:43:09;;;;;;;2.50;1.30;;;;;;;21.82;63.32;100609.13;4877341;29;20084;-73
2023/08/10 09:45:41;;;;;;;2.20;1.40;;;;;;;21.82;63.33;100605.56;4877288;29;20075;-75
2023/08/10 09:48:12;;;;;;;2.38;1.48;;;;;;;21.83;63.48;100613.56;4877203;29;20193;-74
2023/08/10 09:50:40;;;;;;;2.17;1.48;;;;;;;21.84;63.36;100604.41;4876943;29;20096;-74
2023/08/10 09:53:09;;;;;;;3.05;1.50;;;;;;;21.85;63.36;100608.81;4877076;29;20499;-74
2023/08/10 09:55:38;;;;;;;2.03;1.38;;;;;;;21.86;63.03;100604.25;4876646;29;20211;-73
2023/08/10 09:58:06;;;;;;;2.20;1.40;;;;;;;21.86;62.63;100612.38;4876761;29;20080;-74
2023/08/10 10:00:34;;;;;;;1.70;1.20;;;;;;;21.88;62.75;100613.06;4877018;29;20045;-74
2023/08/10 10:03:02;;;;;;;1.92;1.25;;;;;;;21.89;62.64;100609.34;4876471;29;20053;-75
2023/08/10 10:05:31;;;;;;;1.95;1.17;;;;;;;21.90;63.06;100605.63;4876964;29;20144;-74
2023/08/10 10:08:05;;;;;;;1.80;1.38;;;;;;;21.91;63.09;100613.63;4877088;29;20065;-74
2023/08/10 10:10:36;;;;;;;2.47;1.45;;;;;;;21.91;63.02;100608.22;4876897;29;20478;-74
2023/08/10 10:13:06;;;;;;;2.15;1.30;;;;;;;21.92;63.06;100606.34;4875268;29;20100;-74
2023/08/10 10:15:37;;;;;;;2.25;1.33;;;;;;;21.95;63.00;100608.72;4876689;29;20100;-73
2023/08/10 10:18:08;;;;;;;2.70;1.42;;;;;;;21.96;62.81;100605.00;4877050;29;20076;-74
2023/08/10 10:20:39;;;;;;;2.60;1.30;;;;;;;21.97;62.80;100601.28;4876829;29;20132;-73
2023/08/10 10:23:14;;;;;;;2.13;1.40;;;;;;;21.99;62.95;100599.25;4877121;29;20116;-73
2023/08/10 10:25:57;;;;;;;2.10;1.30;;;;;;;22.00;62.80;100603.66;4876893;29;20109;-74
2023/08/10 10:28:26;;;;;;;3.95;1.50;;;;;;;22.02;62.84;100598.94;4876772;29;20061;-74
2023/08/10 10:30:56;;;;;;;1.80;1.23;;;;;;;22.04;62.83;100599.66;4876886;29;20136;-75
2023/08/10 10:33:25;;;;;;;2.55;1.30;;;;;;;22.06;62.75;100600.31;4877232;29;20056;-74
2023/08/10 10:36:08;;;;;;;2.30;1.45;;;;;;;22.09;62.80;100601.91;4877068;29;20096;-73
2023/08/10 10:38:55;;;;;;;2.10;1.20;;;;;;;22.11;62.90;100598.03;4876808;29;20227;-74
2023/08/10 10:41:32;;;;;;;2.53;1.50;;;;;;;22.13;62.65;100590.56;4876515;29;20464;-73
2023/08/10 10:44:01;;;;;;;2.28;1.52;;;;;;;22.15;62.64;100593.13;4876657;29;20131;-72
2023/08/10 10:46:38;;;;;;;2.25;1.20;;;;;;;22.18;62.84;100596.38;4876936;29;20084;-73
2023/08/10 10:49:08;;;;;;;3.00;1.50;;;;;;;22.19;62.39;100589.91;4876232;29;20096;-74
2023/08/10 10:51:58;;;;;;;2.15;1.40;;;;;;;22.22;62.27;100592.34;4876165;29;20044;-72
2023/08/10 10:54:28;;;;;;;1.77;1.30;;;;;;;22.25;62.29;100589.28;4876464;29;20559;-73
2023/08/10 10:56:58;;;;;;;2.40;1.25;;;;;;;22.27;62.42;100587.25;4876630;29;20049;-73
2023/08/10 10:59:26;;;;;;;2.10;1.23;;;;;;;22.30;62.46;100585.25;4876425;29;20093;-73
2023/08/10 11:01:54;;;;;;;2.35;1.30;;;;;;;22.34;62.31;100583.91;4876764;29;20136;-73
2023/08/10 11:04:24;;;;;;;1.67;1.27;;;;;;;22.35;62.24;100589.19;4876665;29;20061;-72
2023/08/10 11:06:52;;;;;;;2.20;1.20;;;;;;;22.38;62.25;100582.56;4876868;29;20365;-73
2023/08/10 11:09:22;;;;;;;2.17;1.35;;;;;;;22.42;62.29;100586.69;4877292;29;20060;-73
2023/08/10 11:11:51;;;;;;;2.08;1.33;;;;;;;22.44;62.31;100587.38;4877346;29;20080;-73
2023/08/10 11:14:21;;;;;;;1.77;1.20;;;;;;;22.48;62.15;100573.28;4878143;29;20053;-74
2023/08/10 11:16:50;;;;;;;1.77;1.33;;;;;;;22.50;62.28;100581.31;4881157;29;20132;-74
2023/08/10 11:19:18;;;;;;;1.67;1.20;;;;;;;22.54;62.22;100577.25;4880877;29;20060;-73
2023/08/10 11:21:51;;;;;;;1.45;1.20;;;;;;;22.57;62.30;100571.47;4880745;29;20059;-74
2023/08/10 11:24:20;;;;;;;1.73;1.20;;;;;;;22.59;62.19;100574.91;4880726;29;20060;-74
2023/08/10 11:26:49;;;;;;;2.40;1.38;;;;;;;22.63;62.15;100570.84;4880620;29;20060;-74
2023/08/10 11:29:19;;;;;;;2.67;1.30;;;;;;;22.66;62.23;100570.50;4880779;29;20088;-74
2023/08/10 11:31:49;;;;;;;1.85;1.20;;;;;;;22.71;61.75;100567.31;4880549;29;20060;-74
2023/08/10 11:34:21;;;;;;;1.58;0.98;;;;;;;22.75;61.91;100574.13;4880383;29;20508;-74
2023/08/10 11:36:51;;;;;;;2.22;1.40;;;;;;;22.79;62.15;100570.91;4880474;29;20407;-74